Time;durP1;ratioP1;P1;durP2;ratioP2;P2;SDS_P1;SDS_P2;PMS_P1;PMS_P2;Temp;Humidity;BMP_temperature;BMP_pressure;BME280_temperature;BME280_humidity;BME280_pressure;Samples;Min_cycle;Max_cycle;Signal;HPM_P1;HPM_P2
2024/03/30 00:02:16;;;;;;;11.77;2.20;;;19.80;28.90;;;16.02;35.05;93777.81;4954180;28;20033;-48
2024/03/30 00:04:42;;;;;;;8.88;1.45;;;19.80;29.50;;;15.98;35.29;93772.31;4950559;28;20073;-51
2024/03/30 00:07:08;;;;;;;8.80;1.45;;;19.80;29.00;;;16.03;34.54;93768.63;4953634;28;20050;-48
2024/03/30 00:09:34;;;;;;;15.73;1.60;;;19.70;29.00;;;16.07;34.59;93778.34;4955256;28;20172;-48
2024/03/30 00:11:59;;;;;;;5.55;1.02;;;19.70;29.00;;;16.14;34.11;93772.41;4954169;28;20054;-49
2024/03/30 00:14:25;;;;;;;7.25;1.10;;;19.80;29.00;;;16.25;33.70;93767.28;4953934;28;20429;-48
2024/03/30 00:16:51;;;;;;;8.52;0.90;;;19.80;28.90;;;16.28;34.16;93761.22;4953050;28;20069;-48
2024/03/30 00:19:17;;;;;;;8.73;1.27;;;19.80;28.90;;;16.31;34.08;93768.59;4954718;28;20093;-50
2024/03/30 00:21:43;;;;;;;8.10;1.40;;;19.80;28.80;;;16.29;33.36;93754.72;4953794;28;20061;-53
2024/03/30 00:24:09;;;;;;;9.48;1.23;;;19.90;28.80;;;16.23;33.99;93748.03;4953799;28;20382;-48
2024/03/30 00:26:34;;;;;;;12.30;1.80;;;19.90;28.80;;;16.20;33.73;93744.13;4953627;28;20026;-48
2024/03/30 00:29:00;;;;;;;11.45;1.75;;;19.90;28.80;;;16.21;33.71;93744.94;4953031;28;20137;-48
2024/03/30 00:31:29;;;;;;;10.85;2.20;;;19.90;28.80;;;16.22;34.08;93749.19;4953750;28;20042;-47
2024/03/30 00:33:55;;;;;;;10.98;1.77;;;19.90;28.80;;;16.18;34.38;93754.47;4951530;28;20034;-49
2024/03/30 00:36:21;;;;;;;11.20;1.92;;;19.90;28.80;;;16.12;35.05;93758.53;4953209;28;20050;-48
2024/03/30 00:38:48;;;;;;;11.73;1.50;;;19.90;29.00;;;16.10;34.54;93772.28;4952628;28;20482;-52
2024/03/30 00:41:14;;;;;;;12.63;1.75;;;19.80;29.00;;;16.06;35.04;93755.28;4953385;28;20110;-52
2024/03/30 00:43:40;;;;;;;9.40;1.73;;;19.80;29.10;;;16.05;35.14;93774.44;4957807;28;20114;-53
2024/03/30 00:46:06;;;;;;;12.13;1.83;;;19.80;29.60;;;15.99;35.39;93773.91;4950745;28;20486;-52
2024/03/30 00:48:32;;;;;;;15.27;2.13;;;19.80;29.20;;;15.95;35.27;93759.59;4953370;28;20482;-48
2024/03/30 00:50:57;;;;;;;6.85;1.35;;;19.70;29.20;;;15.94;34.60;93777.59;4951646;28;21145;-48
2024/03/30 00:53:23;;;;;;;8.07;1.25;;;19.70;29.20;;;16.02;34.83;93765.16;4952950;28;20449;-49
2024/03/30 00:55:59;;;;;;;8.77;2.30;;;19.70;29.20;;;16.02;34.70;93762.47;4953314;28;20034;-49
2024/03/30 00:58:27;;;;;;;8.50;1.42;;;19.70;29.20;;;16.04;34.49;93772.88;4951755;28;20711;-49
2024/03/30 01:00:53;;;;;;;4.93;1.00;;;19.70;29.20;;;16.04;34.13;93764.81;4953387;28;20142;-48
2024/03/30 01:03:20;;;;;;;6.38;1.23;;;19.70;29.10;;;16.06;33.91;93749.16;4952045;28;20055;-49
2024/03/30 01:05:45;;;;;;;11.85;1.30;;;19.70;29.10;;;16.06;34.73;93762.56;4952898;28;20102;-48
2024/03/30 01:08:11;;;;;;;7.43;1.50;;;19.70;29.10;;;16.03;34.16;93755.19;4952720;28;20097;-51
2024/03/30 01:10:37;;;;;;;7.20;1.17;;;19.70;29.10;;;16.03;34.20;93758.66;4952450;28;20088;-48
2024/03/30 01:13:04;;;;;;;6.53;1.15;;;19.70;29.10;;;16.09;34.06;93757.28;4952776;28;20523;-48
2024/03/30 01:15:30;;;;;;;8.48;0.98;;;19.70;29.00;;;16.11;34.22;93755.06;4951802;28;20026;-49
2024/03/30 01:17:58;;;;;;;6.20;1.20;;;19.70;29.00;;;16.17;33.83;93758.28;4952513;28;20027;-53
2024/03/30 01:20:24;;;;;;;5.55;1.20;;;19.70;28.90;;;16.16;33.99;93735.22;4952705;28;20022;-49
2024/03/30 01:22:51;;;;;;;4.18;1.38;;;19.80;29.00;;;16.13;34.96;93739.38;4947690;28;20120;-47
2024/03/30 01:25:18;;;;;;;6.32;1.00;;;19.80;29.10;;;16.04;34.90;93743.31;4952530;28;20073;-47
2024/03/30 01:27:44;;;;;;;4.38;1.20;;;19.80;29.60;;;16.05;35.23;93750.28;4949308;28;20069;-47
2024/03/30 01:30:11;;;;;;;7.20;1.73;;;19.80;29.20;;;16.04;34.70;93729.91;4952449;28;20050;-49
2024/03/30 01:32:38;;;;;;;8.07;1.05;;;19.80;29.20;;;16.04;34.28;93719.16;4952525;28;20084;-53
2024/03/30 01:35:05;;;;;;;6.07;1.30;;;19.70;29.20;;;16.02;34.62;93732.16;4952032;28;20037;-46
2024/03/30 01:37:31;;;;;;;7.07;1.00;;;19.70;29.10;;;16.02;34.96;93727.56;4951751;28;20051;-49
2024/03/30 01:39:58;;;;;;;5.03;0.90;;;19.70;29.20;;;16.02;34.90;93716.06;4951500;28;20076;-47
2024/03/30 01:42:31;;;;;;;7.15;1.08;;;19.70;29.20;;;15.94;34.52;93728.50;4951272;28;20110;-47
2024/03/30 01:44:58;;;;;;;9.98;1.27;;;19.70;29.20;;;15.95;35.06;93740.78;4954107;28;20040;-47
2024/03/30 01:47:30;;;;;;;7.22;1.30;;;19.70;29.20;;;15.92;34.91;93726.16;4951181;28;20022;-46
2024/03/30 01:50:00;;;;;;;7.43;1.70;;;19.70;29.20;;;15.92;35.14;93742.28;4949584;28;20022;-48
2024/03/30 01:52:32;;;;;;;6.88;1.10;;;19.70;29.30;;;15.93;34.79;93751.09;4950452;28;20469;-46
2024/03/30 01:54:59;;;;;;;8.75;1.45;;;19.70;29.20;;;15.98;34.08;93736.66;4952358;28;20061;-48
2024/03/30 01:57:28;;;;;;;14.05;1.40;;;19.70;29.10;;;16.06;34.05;93728.44;4962801;28;20058;-50
2024/03/30 01:59:54;;;;;;;11.75;1.65;;;19.70;29.00;;;16.07;33.56;93721.16;4952288;28;20018;-46
2024/03/30 02:02:22;;;;;;;10.88;1.60;;;19.70;29.00;;;16.16;32.87;93724.47;4950800;28;20026;-46
2024/03/30 02:04:49;;;;;;;6.30;1.63;;;19.70;28.70;;;16.19;32.65;93716.50;4963293;28;20069;-46
2024/03/30 02:07:15;;;;;;;10.77;1.50;;;19.70;28.50;;;16.23;32.87;93700.47;4950223;28;20031;-46
2024/03/30 02:09:42;;;;;;;7.88;1.67;;;19.80;28.50;;;16.22;33.36;93698.13;4948562;28;20084;-48
2024/03/30 02:12:09;;;;;;;11.10;1.70;;;19.80;28.50;;;16.16;33.13;93700.28;4951798;28;20051;-47
2024/03/30 02:14:35;;;;;;;12.75;2.30;;;19.80;28.40;;;16.16;32.83;93701.06;4951869;28;20023;-46
2024/03/30 02:17:01;;;;;;;11.80;2.03;;;19.80;28.40;;;16.15;33.35;93702.22;4945287;28;20429;-46
2024/03/30 02:19:35;;;;;;;9.25;1.85;;;19.90;28.50;;;16.12;33.69;93696.75;4947691;28;20123;-46
2024/03/30 02:22:01;;;;;;;8.50;1.70;;;19.80;28.40;;;16.09;33.51;93717.00;4949643;28;20114;-47
2024/03/30 02:24:26;;;;;;;14.35;1.70;;;19.80;28.50;;;16.15;33.40;93701.44;4951717;28;20126;-47
2024/03/30 02:26:52;;;;;;;10.80;1.60;;;19.80;28.40;;;16.09;33.21;93700.91;4950645;28;20033;-48
2024/03/30 02:29:23;;;;;;;11.73;1.60;;;19.80;28.40;;;16.04;33.92;93692.31;4950423;28;20104;-47
2024/03/30 02:31:49;;;;;;;12.70;1.95;;;19.80;28.50;;;16.06;33.18;93687.38;4963242;28;20035;-48
2024/03/30 02:34:15;;;;;;;9.65;1.90;;;19.80;28.90;;;16.04;33.42;93692.31;4948500;28;20065;-53
2024/03/30 02:36:41;;;;;;;12.77;1.70;;;19.80;28.40;;;16.03;33.20;93677.31;4951610;28;20053;-46
2024/03/30 02:39:07;;;;;;;8.95;2.00;;;19.80;28.40;;;15.98;34.00;93678.34;4950311;28;20022;-47
2024/03/30 02:41:33;;;;;;;10.60;1.95;;;19.70;28.50;;;15.93;33.26;93684.75;4951563;28;20027;-46
2024/03/30 02:43:59;;;;;;;13.07;2.15;;;19.70;28.50;;;15.95;34.30;93684.41;4956147;28;20033;-46
2024/03/30 02:46:25;;;;;;;13.13;2.00;;;19.70;28.60;;;15.81;34.15;93690.19;4943852;28;20035;-47
2024/03/30 02:48:51;;;;;;;8.40;1.20;;;19.60;28.70;;;15.72;34.82;93703.75;4950977;28;20089;-47
2024/03/30 02:51:16;;;;;;;17.65;2.60;;;19.60;28.80;;;15.57;35.79;93709.03;4950422;28;20022;-47
2024/03/30 02:53:42;;;;;;;13.88;2.28;;;19.50;28.90;;;15.48;36.01;93703.81;4951379;28;20113;-47
2024/03/30 02:56:08;;;;;;;11.75;2.38;;;19.40;29.00;;;15.34;35.56;93701.50;4951359;28;20031;-47
2024/03/30 02:58:34;;;;;;;15.20;2.05;;;19.30;29.10;;;15.33;36.79;93697.28;4950496;28;20026;-50
2024/03/30 03:01:00;;;;;;;12.00;1.80;;;19.30;29.30;;;15.19;36.69;93691.50;4951774;28;20026;-48
2024/03/30 03:03:26;;;;;;;18.23;3.28;;;19.20;29.50;;;15.09;37.01;93691.97;4947082;28;20038;-46
2024/03/30 03:05:56;;;;;;;14.23;1.90;;;19.10;29.70;;;15.01;37.05;93696.31;4951731;28;20493;-46
2024/03/30 03:08:24;;;;;;;13.30;1.98;;;19.00;29.80;;;14.90;37.59;93705.97;4951167;28;20117;-51
2024/03/30 03:10:51;;;;;;;15.50;1.73;;;18.90;29.90;;;14.84;37.97;93699.25;4950759;28;20401;-46
2024/03/30 03:13:19;;;;;;;15.40;1.80;;;18.80;30.00;;;14.80;38.24;93691.13;4951808;28;20454;-47
2024/03/30 03:15:45;;;;;;;10.40;1.80;;;18.70;30.10;;;14.65;37.93;93687.22;4950653;28;20169;-49
2024/03/30 03:18:11;;;;;;;17.67;2.35;;;18.70;30.30;;;14.62;38.54;93674.50;4950835;28;20114;-53
2024/03/30 03:20:37;;;;;;;17.35;1.95;;;18.60;30.40;;;14.55;38.50;93674.28;4951227;28;20030;-47
2024/03/30 03:23:03;;;;;;;17.35;2.22;;;18.50;30.60;;;14.52;39.17;93678.41;4950518;28;20030;-47
2024/03/30 03:25:29;;;;;;;14.32;1.95;;;18.40;30.80;;;14.48;39.02;93672.13;4950573;28;20146;-49
2024/03/30 03:27:55;;;;;;;17.27;2.55;;;18.40;30.90;;;14.37;39.14;93668.31;4947568;28;20482;-50
2024/03/30 03:30:21;;;;;;;15.05;2.55;;;18.30;31.00;;;14.29;40.28;93671.88;4953775;28;20393;-49
2024/03/30 03:32:47;;;;;;;14.20;2.00;;;18.20;31.20;;;14.10;40.96;93667.06;4954546;28;20153;-48
2024/03/30 03:35:12;;;;;;;14.95;2.05;;;18.20;31.40;;;13.74;41.90;93643.69;4954044;28;20555;-47
2024/03/30 03:37:38;;;;;;;10.48;1.95;;;18.00;31.60;;;13.73;42.14;93650.94;4954488;28;20517;-48
2024/03/30 03:40:06;;;;;;;11.52;1.85;;;17.90;31.90;;;13.67;42.28;93668.31;4951838;28;20014;-47
2024/03/30 03:42:32;;;;;;;6.78;1.65;;;17.80;32.20;;;13.60;42.50;93660.03;4954027;28;20038;-48
2024/03/30 03:44:57;;;;;;;15.05;2.25;;;17.60;32.40;;;13.41;42.02;93673.88;4956954;28;20026;-50
2024/03/30 03:47:23;;;;;;;7.00;2.20;;;17.60;32.60;;;13.30;42.11;93673.53;4952464;28;20027;-49
2024/03/30 03:49:49;;;;;;;16.88;2.28;;;17.50;32.70;;;13.20;42.41;93674.66;4954256;28;20482;-48
2024/03/30 03:52:15;;;;;;;17.25;2.13;;;17.40;33.40;;;13.11;42.67;93660.59;4953086;28;20101;-47
2024/03/30 03:54:41;;;;;;;12.75;2.47;;;17.30;32.90;;;13.08;42.65;93636.41;4954500;28;20030;-46
2024/03/30 03:57:07;;;;;;;9.43;2.55;;;17.20;33.10;;;13.13;42.71;93633.53;4951798;28;20038;-52
2024/03/30 03:59:33;;;;;;;17.83;2.88;;;17.10;33.50;;;13.21;41.21;93627.31;4954343;28;20117;-49
2024/03/30 04:01:58;;;;;;;13.77;1.73;;;17.10;33.30;;;13.43;40.67;93627.00;4954294;28;20035;-48
2024/03/30 04:04:25;;;;;;;10.98;1.88;;;17.10;33.30;;;13.46;40.57;93622.88;4953334;28;20025;-47
2024/03/30 04:06:50;;;;;;;8.55;1.63;;;17.10;33.30;;;13.47;40.22;93637.81;4952590;28;20041;-52
2024/03/30 04:09:17;;;;;;;8.98;1.80;;;17.20;33.20;;;13.49;40.48;93638.28;4952917;28;20014;-47
2024/03/30 04:11:43;;;;;;;16.85;2.15;;;17.20;33.80;;;13.44;40.94;93643.81;4954170;28;20061;-46
2024/03/30 04:14:09;;;;;;;11.90;1.90;;;17.20;33.20;;;13.41;41.30;93639.13;4954074;28;20367;-48
2024/03/30 04:16:35;;;;;;;11.40;1.75;;;17.20;33.20;;;13.34;41.88;93654.94;4951618;28;20037;-48
2024/03/30 04:19:01;;;;;;;5.00;1.15;;;17.20;33.20;;;13.20;41.67;93660.53;4954011;28;20035;-47
2024/03/30 04:21:27;;;;;;;9.52;1.30;;;17.10;33.20;;;13.12;42.21;93659.47;4952790;28;20026;-47
2024/03/30 04:23:53;;;;;;;7.65;1.45;;;17.10;33.40;;;13.09;42.75;93640.63;4949197;28;20061;-48
2024/03/30 04:26:19;;;;;;;13.43;1.83;;;17.10;33.50;;;13.07;43.19;93637.53;4953616;28;20026;-46
2024/03/30 04:28:45;;;;;;;16.17;1.73;;;17.00;33.60;;;12.94;43.87;93633.97;4952879;28;20033;-51
2024/03/30 04:31:11;;;;;;;13.98;1.67;;;17.00;33.80;;;12.81;43.46;93622.44;4953660;28;20038;-53
2024/03/30 04:33:37;;;;;;;10.30;1.65;;;16.90;33.90;;;12.78;44.00;93622.31;4951910;28;20034;-47
2024/03/30 04:36:06;;;;;;;10.05;1.67;;;16.90;34.10;;;12.73;44.01;93613.41;4953542;28;20397;-46
2024/03/30 04:38:35;;;;;;;11.88;1.45;;;16.80;34.30;;;12.75;44.10;93610.38;4953532;28;20039;-47
2024/03/30 04:41:07;;;;;;;12.77;1.98;;;16.80;34.40;;;12.73;44.06;93601.94;4951909;28;20031;-48
2024/03/30 04:43:36;;;;;;;9.43;1.20;;;16.70;34.40;;;12.67;43.21;93593.34;4954114;28;20109;-50
2024/03/30 04:46:09;;;;;;;10.77;1.50;;;16.70;34.50;;;12.71;45.67;93614.81;4952592;28;20089;-46
2024/03/30 04:48:36;;;;;;;8.95;1.30;;;16.70;34.70;;;12.57;44.88;93607.09;4953225;28;20035;-45
2024/03/30 04:51:02;;;;;;;10.98;1.42;;;16.60;34.70;;;12.35;48.00;93608.16;4952922;28;20560;-47
2024/03/30 04:53:34;;;;;;;10.13;1.42;;;16.50;35.00;;;12.26;47.06;93612.75;4953104;28;20122;-47
2024/03/30 04:56:07;;;;;;;8.85;1.58;;;16.40;35.30;;;12.12;47.85;93610.31;4953332;28;20313;-48
2024/03/30 04:58:34;;;;;;;8.45;2.03;;;16.30;35.50;;;11.99;46.38;93609.41;4949363;28;20113;-49
2024/03/30 05:01:09;;;;;;;7.80;1.58;;;16.30;35.40;;;11.96;47.87;93615.41;4953384;28;20452;-47
2024/03/30 05:03:37;;;;;;;11.32;1.48;;;16.20;35.80;;;11.69;50.47;93602.44;4952161;28;20501;-49
2024/03/30 05:06:06;;;;;;;7.50;1.30;;;16.00;36.00;;;11.55;50.27;93606.09;4953101;28;20118;-48
2024/03/30 05:08:32;;;;;;;7.28;1.27;;;16.00;36.30;;;11.23;53.82;93610.09;4951637;28;20057;-45
2024/03/30 05:10:59;;;;;;;9.90;1.98;;;15.80;36.60;;;11.02;52.69;93622.50;4952512;28;20160;-45
2024/03/30 05:13:26;;;;;;;12.15;1.42;;;15.60;37.00;;;10.72;56.36;93605.56;4952901;28;20031;-51
2024/03/30 05:15:52;;;;;;;7.68;1.40;;;15.40;37.40;;;10.60;54.96;93603.53;4952029;28;20061;-46
2024/03/30 05:18:21;;;;;;;8.90;1.52;;;15.30;37.70;;;10.50;55.03;93611.81;4952664;28;20421;-46
2024/03/30 05:20:59;;;;;;;10.98;2.03;;;15.10;37.90;;;10.29;59.11;93598.31;4951980;28;20022;-54
2024/03/30 05:23:31;;;;;;;7.35;1.58;;;15.00;38.60;;;10.12;58.49;93583.06;4953084;28;20062;-46
2024/03/30 05:26:02;;;;;;;8.40;1.63;;;14.80;38.70;;;10.01;58.75;93593.22;4952567;28;20166;-46
2024/03/30 05:28:31;;;;;;;9.85;1.50;;;14.70;39.00;;;9.81;60.96;93585.78;4950387;28;20034;-45
2024/03/30 05:31:03;;;;;;;8.23;2.05;;;14.60;39.30;;;9.72;59.60;93583.13;4952701;28;20023;-47
2024/03/30 05:33:29;;;;;;;10.70;1.55;;;14.50;39.50;;;9.59;60.89;93594.59;4950298;28;20042;-48
2024/03/30 05:35:55;;;;;;;7.15;1.25;;;14.40;39.70;;;9.57;63.37;93600.25;4952566;28;20506;-49
2024/03/30 05:38:22;;;;;;;8.73;1.40;;;14.30;40.10;;;9.37;64.38;93595.44;4952410;28;20507;-49
2024/03/30 05:40:50;;;;;;;7.78;1.48;;;14.20;40.50;;;9.30;65.90;93598.53;4951782;28;20053;-49
2024/03/30 05:43:16;;;;;;;11.13;1.48;;;14.10;40.80;;;9.16;66.94;93595.19;4948501;28;20474;-46
2024/03/30 05:45:47;;;;;;;8.10;1.35;;;14.00;41.10;;;9.16;67.04;93592.53;4951720;28;20035;-48
2024/03/30 05:48:14;;;;;;;10.85;1.92;;;13.90;41.50;;;9.06;67.50;93584.78;4952141;28;20034;-48
2024/03/30 05:50:40;;;;;;;5.85;1.30;;;13.90;41.70;;;9.14;66.14;93589.38;4952447;28;20027;-46
2024/03/30 05:53:06;;;;;;;6.65;2.22;;;13.90;41.90;;;9.10;68.71;93588.44;4951377;28;20062;-49
2024/03/30 05:55:32;;;;;;;10.10;2.30;;;13.90;42.20;;;9.19;68.12;93574.09;4952428;28;20173;-46
2024/03/30 05:58:03;;;;;;;13.50;3.83;;;13.90;42.40;;;9.26;66.39;93582.41;4951260;28;20025;-48
2024/03/30 06:00:31;;;;;;;10.90;2.17;;;13.90;42.50;;;9.36;67.71;93580.59;4952043;28;20080;-46
2024/03/30 06:02:58;;;;;;;10.27;2.22;;;14.00;42.70;;;9.44;66.40;93580.66;4951832;28;20474;-53
2024/03/30 06:05:25;;;;;;;11.18;2.50;;;14.10;42.70;;;9.58;67.32;93579.75;4951948;28;20061;-47
2024/03/30 06:07:51;;;;;;;11.10;2.05;;;14.20;42.80;;;9.60;67.89;93575.72;4952126;28;20202;-46
2024/03/30 06:10:17;;;;;;;17.73;2.30;;;14.20;43.10;;;9.70;68.94;93566.69;4949274;28;20389;-46
2024/03/30 06:12:43;;;;;;;13.60;1.98;;;14.40;43.30;;;9.77;69.35;93563.56;4952394;28;20037;-46
2024/03/30 06:15:09;;;;;;;12.98;1.88;;;14.50;43.40;;;9.83;70.17;93551.69;4950846;28;20101;-49
2024/03/30 06:17:38;;;;;;;14.55;2.03;;;14.60;43.60;;;9.90;70.44;93549.38;4951749;28;20023;-45
2024/03/30 06:20:10;;;;;;;11.70;1.58;;;14.70;43.70;;;10.01;70.23;93547.22;4952157;28;20505;-51
2024/03/30 06:22:37;;;;;;;15.32;2.00;;;14.80;43.90;;;10.10;68.33;93556.78;4950045;28;20065;-45
2024/03/30 06:25:05;;;;;;;12.27;2.13;;;14.90;43.70;;;10.27;61.93;93556.03;4951892;28;20035;-46
2024/03/30 06:27:34;;;;;;;18.40;1.90;;;15.10;43.40;;;10.55;64.46;93555.75;4950530;28;20112;-45
2024/03/30 06:30:01;;;;;;;13.52;2.03;;;15.30;43.30;;;10.79;64.84;93555.28;4949315;28;20110;-49
2024/03/30 06:32:27;;;;;;;12.63;2.03;;;15.50;43.40;;;10.96;66.13;93559.81;4941050;28;20031;-49
2024/03/30 06:34:53;;;;;;;18.55;1.90;;;15.70;43.30;;;11.17;58.52;93554.63;4941670;28;20473;-49
2024/03/30 06:37:19;;;;;;;18.77;2.42;;;15.90;43.00;;;11.81;50.00;93546.53;4942434;28;20129;-48
2024/03/30 06:45:14;;;;;;;21.45;2.60;;;16.70;41.40;;;12.62;53.17;93560.69;4947730;28;20405;-51
2024/03/30 06:47:40;;;;;;;16.88;2.33;;;17.00;41.00;;;12.79;55.08;93552.56;4951676;28;20022;-48
2024/03/30 06:50:08;;;;;;;19.48;2.40;;;17.30;40.90;;;13.00;53.40;93549.84;4950481;28;20085;-46
2024/03/30 06:52:33;;;;;;;15.18;2.30;;;17.50;40.70;;;13.18;53.31;93547.78;4950105;28;20038;-47
2024/03/30 06:55:00;;;;;;;17.02;2.83;;;17.80;40.50;;;13.36;54.01;93543.84;4951621;28;20162;-50
2024/03/30 06:57:26;;;;;;;17.70;2.50;;;18.00;40.30;;;13.54;53.08;93546.34;4950499;28;20033;-50
2024/03/30 06:59:52;;;;;;;12.32;1.88;;;18.20;40.10;;;13.64;53.57;93553.94;4944737;28;20023;-46
2024/03/30 07:02:18;;;;;;;14.43;2.53;;;18.40;40.00;;;13.73;50.71;93538.56;4951671;28;20026;-46
2024/03/30 07:04:44;;;;;;;19.27;3.00;;;18.60;39.60;;;13.92;49.99;93538.03;4952935;28;20026;-48
2024/03/30 07:07:09;;;;;;;27.73;3.33;;;18.70;39.30;;;14.07;50.12;93532.00;4954999;28;20474;-48
2024/03/30 07:09:35;;;;;;;31.00;3.35;;;18.80;39.00;;;14.18;48.75;93537.66;4954479;28;20022;-49
2024/03/30 07:12:01;;;;;;;28.02;3.20;;;18.90;38.70;;;14.35;49.59;93542.00;4955197;28;20374;-46
2024/03/30 07:14:27;;;;;;;23.45;3.28;;;19.10;38.60;;;14.44;50.86;93539.19;4955034;28;20096;-48
2024/03/30 07:16:55;;;;;;;16.65;2.65;;;19.20;38.50;;;14.54;48.18;93546.78;4953997;28;20054;-48
2024/03/30 07:19:22;;;;;;;23.23;3.53;;;19.30;38.20;;;14.62;50.59;93537.06;4954878;28;20050;-51
2024/03/30 07:21:48;;;;;;;14.13;2.72;;;19.40;38.20;;;14.70;50.42;93544.19;4954518;28;20078;-51
2024/03/30 07:24:16;;;;;;;22.25;3.15;;;19.50;38.20;;;14.68;49.45;93547.19;4954835;28;20042;-53
2024/03/30 07:26:41;;;;;;;16.35;2.75;;;19.60;38.00;;;14.71;47.93;93543.84;4954955;28;20022;-54
2024/03/30 07:29:07;;;;;;;19.02;3.22;;;19.70;37.70;;;14.79;47.83;93536.78;4952073;28;20482;-52
2024/03/30 07:31:33;;;;;;;29.70;2.80;;;19.80;37.50;;;14.89;47.80;93546.25;4954760;28;20027;-52
2024/03/30 07:33:59;;;;;;;24.42;3.15;;;19.80;37.30;;;14.97;47.37;93554.13;4953763;28;20069;-52
2024/03/30 07:36:25;;;;;;;14.82;2.90;;;19.90;37.10;;;15.10;47.45;93552.19;4954219;28;20054;-51
2024/03/30 07:38:51;;;;;;;25.02;3.42;;;20.00;37.10;;;15.18;49.43;93553.94;4954826;28;20041;-50
2024/03/30 07:41:17;;;;;;;26.67;3.30;;;20.10;37.20;;;15.24;46.79;93547.22;4952293;28;20552;-51
2024/03/30 07:43:42;;;;;;;21.65;2.60;;;20.20;37.00;;;15.36;47.82;93549.06;4954896;28;20401;-49
2024/03/30 07:46:08;;;;;;;22.40;3.08;;;20.40;36.90;;;15.35;45.06;93538.66;4951495;28;20253;-51
2024/03/30 07:48:34;;;;;;;24.63;3.95;;;20.50;36.60;;;15.36;47.51;93543.72;4954515;28;20049;-50
2024/03/30 07:51:01;;;;;;;21.73;3.25;;;20.60;36.50;;;15.50;49.51;93546.75;4954013;28;20030;-54
2024/03/30 07:53:27;;;;;;;28.85;3.58;;;20.70;36.50;;;15.63;49.35;93546.66;4954228;28;20038;-49
2024/03/30 07:55:54;;;;;;;21.52;3.03;;;20.80;36.60;;;15.75;48.76;93553.91;4954661;28;20073;-52
2024/03/30 07:58:20;;;;;;;20.52;3.50;;;20.90;36.60;;;15.82;45.44;93549.47;4952656;28;20482;-49
2024/03/30 08:00:46;;;;;;;35.03;4.05;;;21.10;36.20;;;16.00;46.21;93551.81;4951669;28;20069;-50
2024/03/30 08:03:12;;;;;;;21.98;3.70;;;21.20;35.90;;;16.12;45.44;93551.72;4953492;28;20084;-48
2024/03/30 08:05:38;;;;;;;19.75;3.35;;;21.40;35.60;;;16.28;46.41;93559.75;4950589;28;20042;-48
2024/03/30 08:08:06;;;;;;;19.00;3.05;;;21.60;35.60;;;16.38;47.69;93565.38;4955911;28;20035;-53
2024/03/30 08:10:32;;;;;;;19.67;2.83;;;21.80;35.50;;;16.50;45.82;93571.78;4954129;28;20030;-50
2024/03/30 08:12:57;;;;;;;20.45;3.10;;;22.00;35.30;;;16.57;42.83;93558.47;4954040;28;20031;-48
2024/03/30 08:15:23;;;;;;;21.95;3.08;;;22.10;34.80;;;16.64;40.54;93566.72;4952116;28;20023;-49
2024/03/30 08:17:49;;;;;;;20.10;3.15;;;22.20;34.10;;;16.93;44.65;93567.34;4953645;28;20061;-48
2024/03/30 08:20:15;;;;;;;21.75;3.13;;;22.30;34.10;;;16.96;41.26;93562.03;4954197;28;20496;-49
2024/03/30 08:22:41;;;;;;;22.50;3.40;;;22.50;33.70;;;17.22;40.06;93572.16;4952959;28;20031;-49
2024/03/30 08:25:08;;;;;;;24.92;4.30;;;22.70;33.20;;;17.46;41.22;93570.31;4953983;28;20034;-50
2024/03/30 08:27:34;;;;;;;19.67;2.92;;;23.00;33.00;;;17.82;40.43;93563.66;4949399;28;20045;-52
2024/03/30 08:30:04;;;;;;;18.92;3.15;;;23.30;32.70;;;18.12;38.92;93566.47;4949122;28;20029;-50
2024/03/30 08:32:30;;;;;;;22.52;3.03;;;23.70;32.20;;;18.55;37.45;93566.31;4949090;28;20158;-50
2024/03/30 08:34:56;;;;;;;21.60;3.60;;;24.10;31.60;;;18.89;35.68;93565.28;4949165;28;20026;-53
2024/03/30 08:37:23;;;;;;;22.15;2.70;;;24.60;30.80;;;19.31;35.88;93568.88;4944720;28;20061;-53
2024/03/30 08:39:49;;;;;;;19.15;2.83;;;25.00;30.30;;;19.53;34.94;93551.00;4948707;28;20049;-49
2024/03/30 08:42:15;;;;;;;18.33;3.75;;;25.30;29.80;;;19.62;34.03;93549.56;4950745;28;20458;-49
2024/03/30 08:44:41;;;;;;;16.70;3.13;;;25.60;29.30;;;19.94;34.24;93556.44;4951331;28;20073;-52
2024/03/30 08:47:07;;;;;;;19.80;2.80;;;25.80;29.00;;;20.13;32.90;93556.22;4947391;28;20026;-52
2024/03/30 08:49:33;;;;;;;15.65;3.08;;;26.00;28.70;;;20.38;31.83;93561.81;4951041;28;20158;-48
2024/03/30 08:51:58;;;;;;;19.02;2.80;;;26.20;28.40;;;20.52;31.08;93578.16;4945060;28;20031;-49
2024/03/30 08:54:24;;;;;;;21.10;2.80;;;26.40;28.00;;;20.65;32.83;93562.44;4939952;28;20030;-52
2024/03/30 08:56:50;;;;;;;17.55;2.40;;;26.50;27.70;;;20.80;31.97;93564.03;4948380;28;20072;-56
2024/03/30 08:59:16;;;;;;;20.23;3.00;;;26.60;27.50;;;20.63;31.18;93566.66;4947266;28;20018;-48
2024/03/30 09:01:42;;;;;;;17.08;3.28;;;26.70;27.20;;;20.84;31.89;93550.56;4947575;28;20118;-49
2024/03/30 09:04:08;;;;;;;19.23;2.88;;;26.80;27.10;;;20.88;30.29;93554.03;4947896;28;20030;-55
2024/03/30 09:06:34;;;;;;;17.83;2.80;;;26.80;26.70;;;21.08;29.14;93559.16;4947326;28;20036;-53
2024/03/30 09:09:00;;;;;;;15.80;2.55;;;26.90;26.40;;;21.09;28.64;93566.13;4948919;28;20026;-50
2024/03/30 09:11:26;;;;;;;15.45;2.22;;;27.00;26.10;;;21.18;30.12;93567.31;4951776;28;20375;-49
2024/03/30 09:13:52;;;;;;;21.50;2.95;;;27.00;26.00;;;21.34;30.98;93567.03;4950003;28;20494;-51
2024/03/30 09:16:18;;;;;;;16.50;2.70;;;27.10;26.10;;;21.41;30.74;93558.16;4948378;28;20625;-49
2024/03/30 09:18:43;;;;;;;17.27;2.40;;;27.10;26.10;;;21.10;31.26;93552.22;4947894;28;20506;-49
2024/03/30 09:21:09;;;;;;;15.70;2.38;;;27.10;26.10;;;20.67;32.22;93554.69;4949060;28;20049;-49
2024/03/30 09:23:35;;;;;;;18.85;2.85;;;27.10;26.10;;;20.96;31.82;93562.97;4949176;28;20023;-49
2024/03/30 09:26:01;;;;;;;21.05;3.17;;;27.10;26.10;;;21.03;31.69;93569.19;4950356;28;20026;-50
2024/03/30 09:28:27;;;;;;;21.00;2.75;;;27.10;26.10;;;21.32;32.84;93569.31;4946416;28;20027;-48
2024/03/30 09:30:53;;;;;;;14.60;2.65;;;27.20;26.30;;;21.50;32.07;93564.00;4948950;28;21182;-49
2024/03/30 09:33:19;;;;;;;14.68;2.65;;;27.30;26.30;;;21.17;31.00;93556.88;4948842;28;20385;-51
2024/03/30 09:35:46;;;;;;;17.20;3.17;;;27.30;26.10;;;21.37;32.43;93562.78;4950408;28;20028;-51
2024/03/30 09:38:12;;;;;;;12.55;2.38;;;27.40;26.10;;;21.51;32.37;93565.53;4945954;28;20243;-49
2024/03/30 09:40:50;;;;;;;16.85;2.63;;;27.40;26.20;;;21.02;31.67;93556.81;4941666;28;20133;-49
2024/03/30 09:43:18;;;;;;;14.75;2.60;;;27.40;26.00;;;21.22;32.52;93562.72;4947876;28;20106;-49
2024/03/30 09:45:48;;;;;;;21.30;2.75;;;27.30;26.10;;;21.14;32.50;93555.69;4948540;28;20018;-50
2024/03/30 09:48:18;;;;;;;19.20;2.65;;;27.30;26.10;;;21.35;33.72;93567.78;4948155;28;20061;-50
2024/03/30 09:50:45;;;;;;;15.98;2.47;;;27.30;26.30;;;21.57;34.05;93564.00;4948879;28;20019;-52
2024/03/30 09:53:16;;;;;;;11.85;2.75;;;27.30;26.60;;;21.75;35.76;93560.56;4961330;28;20138;-50
2024/03/30 09:55:44;;;;;;;13.23;3.03;;;27.30;27.00;;;21.77;33.23;93553.59;4947062;28;20023;-50
2024/03/30 09:58:14;;;;;;;17.05;2.55;;;27.30;26.90;;;21.74;34.31;93557.06;4944453;28;20034;-48
2024/03/30 10:00:41;;;;;;;17.85;2.67;;;27.30;27.00;;;21.84;35.47;93558.25;4959586;28;20034;-50
2024/03/30 10:03:07;;;;;;;23.70;2.92;;;27.30;27.20;;;21.87;36.57;93552.88;4962837;28;20141;-52
2024/03/30 10:05:39;;;;;;;23.05;3.08;;;27.20;27.50;;;21.95;37.34;93556.34;4964403;28;20460;-51
2024/03/30 10:08:12;;;;;;;;;;;27.20;27.90;;;21.95;33.62;93557.13;4960845;28;20031;-52
2024/03/30 10:10:42;;;;;;;12.75;2.47;;;27.20;27.90;;;21.85;36.08;93557.88;4947470;28;19956;-52
2024/03/30 10:13:30;;;;;;;21.63;2.60;;;27.20;27.90;;;21.73;33.19;93560.97;4948168;28;20545;-52
2024/03/30 10:15:56;;;;;;;27.65;2.70;;;27.20;27.50;;;21.74;35.16;93561.72;4948739;28;20104;-50
2024/03/30 10:18:23;;;;;;;22.23;2.90;;;27.00;27.60;;;21.69;34.94;93568.31;4947219;28;20482;-52
2024/03/30 10:20:49;;;;;;;19.77;2.75;;;27.00;27.80;;;21.69;32.68;93566.38;4949877;28;20508;-51